createdAt,value
2018-12-27T00:02:04.546Z,81.22
2018-12-27T00:04:59.965Z,83.67
2018-12-27T00:07:58.504Z,87.40
2018-12-27T00:10:52.945Z,85.80
2018-12-27T00:13:51.477Z,84.83
2018-12-27T00:16:46.912Z,88.42
2018-12-27T00:19:45.405Z,85.53
2018-12-27T00:22:41.814Z,88.12
2018-12-27T00:25:38.283Z,86.32
2018-12-27T00:28:36.575Z,87.53
2018-12-27T00:31:34.333Z,86.63
2018-12-27T00:34:31.391Z,85.38
2018-12-27T00:37:27.271Z,89.55
2018-12-27T00:40:22.732Z,89.35
2018-12-27T00:43:18.996Z,88.80
2018-12-27T00:46:14.826Z,89.70
2018-12-27T00:49:10.814Z,91.35
2018-12-27T00:52:06.152Z,94.83
2018-12-27T00:55:02.022Z,93.42
2018-12-27T00:57:57.736Z,98.17
2018-12-27T01:00:53.330Z,92.65
2018-12-27T01:03:48.908Z,96.42
2018-12-27T01:06:44.498Z,93.35
2018-12-27T01:09:40.322Z,96.70
2018-12-27T01:12:36.254Z,95.60
2018-12-27T01:15:34.548Z,96.35
2018-12-27T01:18:29.370Z,93.50
2018-12-27T01:21:25.205Z,94.28
2018-12-27T01:24:21.031Z,98.60
2018-12-27T01:27:19.003Z,100.15
2018-12-27T01:30:17.841Z,98.62
2018-12-27T01:33:18.704Z,100.87
2018-12-27T01:36:11.377Z,99.95
2018-12-27T01:39:08.129Z,97.45
2018-12-27T01:42:04.266Z,100.45
2018-12-27T01:45:00.249Z,98.52
2018-12-27T01:47:56.223Z,98.42
2018-12-27T01:50:52.196Z,97.08
2018-12-27T01:53:49.319Z,97.97
2018-12-27T01:56:46.646Z,98.97
2018-12-27T01:59:43.990Z,99.65
2018-12-27T02:02:40.172Z,97.30
2018-12-27T02:05:36.289Z,96.28
2018-12-27T02:08:32.562Z,99.67
2018-12-27T02:11:28.241Z,98.07
2018-12-27T02:14:24.411Z,100.22
2018-12-27T02:17:20.393Z,99.92
2018-12-27T02:20:16.104Z,103.50
2018-12-27T02:23:16.913Z,103.53
2018-12-27T02:26:18.133Z,100.67
2018-12-27T02:29:11.970Z,99.42
2018-12-27T02:32:07.887Z,100.95
2018-12-27T02:35:03.677Z,98.67
2018-12-27T02:37:59.146Z,97.95
2018-12-27T02:40:55.254Z,100.15
2018-12-27T02:43:54.089Z,100.87
2018-12-27T02:46:49.811Z,99.42
2018-12-27T02:49:45.890Z,99.58
2018-12-27T02:52:41.417Z,97.25
2018-12-27T02:55:37.123Z,99.50
2018-12-27T02:58:32.479Z,97.53
2018-12-27T03:01:28.042Z,101.33
2018-12-27T03:04:23.293Z,100.38
2018-12-27T03:07:19.090Z,99.52
2018-12-27T03:10:17.974Z,99.17
2018-12-27T03:13:13.388Z,98.15
2018-12-27T03:16:09.422Z,100.80
2018-12-27T03:19:04.824Z,97.50
2018-12-27T03:22:00.871Z,99.65
2018-12-27T03:24:56.389Z,98.00
2018-12-27T03:27:52.140Z,100.38
2018-12-27T03:30:47.906Z,99.17
2018-12-27T03:33:52.476Z,99.87
2018-12-27T03:36:42.402Z,98.07
2018-12-27T03:39:37.992Z,100.75
2018-12-27T03:42:33.750Z,99.47
2018-12-27T03:45:29.667Z,99.58
2018-12-27T03:48:25.390Z,100.10
2018-12-27T03:51:20.881Z,98.87
2018-12-27T03:54:16.409Z,96.25
2018-12-27T03:57:12.316Z,98.50
2018-12-27T04:00:08.282Z,98.67
2018-12-27T04:03:04.449Z,97.27
2018-12-27T04:06:00.083Z,99.55
2018-12-27T04:08:59.179Z,98.40
2018-12-27T04:11:58.592Z,95.72
2018-12-27T04:14:53.052Z,98.33
2018-12-27T04:17:48.662Z,98.95
2018-12-27T04:20:44.373Z,96.10
2018-12-27T04:23:40.162Z,96.87
2018-12-27T04:26:36.036Z,94.65
2018-12-27T04:29:31.783Z,96.20
2018-12-27T04:32:28.298Z,94.30
2018-12-27T04:35:24.015Z,98.55
2018-12-27T04:38:20.088Z,93.35
2018-12-27T04:41:16.668Z,92.55
2018-12-27T04:44:12.954Z,91.10
2018-12-27T04:47:09.119Z,95.20
2018-12-27T04:50:04.941Z,89.32
2018-12-27T04:53:01.009Z,91.32
2018-12-27T04:55:58.312Z,92.47
2018-12-27T04:58:54.507Z,91.87
2018-12-27T05:01:51.450Z,91.82
2018-12-27T05:04:47.087Z,91.63
2018-12-27T05:07:44.083Z,89.97
2018-12-27T05:10:39.463Z,89.50
2018-12-27T05:13:41.771Z,90.62
2018-12-27T05:16:42.577Z,91.60
2018-12-27T05:19:43.356Z,86.63
2018-12-27T05:22:38.075Z,88.92
2018-12-27T05:25:33.979Z,86.22
2018-12-27T05:28:29.917Z,86.35
2018-12-27T05:31:29.573Z,87.33
2018-12-27T05:34:26.569Z,86.57
2018-12-27T05:37:24.422Z,84.92
2018-12-27T05:40:23.406Z,85.95
2018-12-27T05:43:20.194Z,83.07
2018-12-27T05:46:20.473Z,82.20
2018-12-27T05:49:17.178Z,81.80
2018-12-27T05:52:13.724Z,86.25
2018-12-27T05:55:12.603Z,81.45
2018-12-27T05:58:09.463Z,82.53
2018-12-27T06:01:07.521Z,78.20
2018-12-27T06:04:04.235Z,80.55
2018-12-27T06:07:01.881Z,80.17
2018-12-27T06:10:00.284Z,77.72
2018-12-27T06:12:55.600Z,78.52
2018-12-27T06:15:52.295Z,76.05
2018-12-27T06:18:48.245Z,79.67
2018-12-27T06:21:43.694Z,74.97
2018-12-27T06:24:39.522Z,77.12
2018-12-27T06:27:35.000Z,76.37
2018-12-27T06:30:39.093Z,76.12
2018-12-27T06:33:34.735Z,77.00
2018-12-27T06:36:30.357Z,76.30
2018-12-27T06:39:26.111Z,75.67
2018-12-27T06:42:23.392Z,76.50
2018-12-27T06:45:19.356Z,74.50
2018-12-27T06:48:15.798Z,74.05
2018-12-27T06:51:12.013Z,74.85
2018-12-27T06:54:07.925Z,87.82
2018-12-27T06:57:06.827Z,76.75
2018-12-27T07:00:05.337Z,75.67
2018-12-27T07:03:00.642Z,74.35
2018-12-27T07:05:57.895Z,72.17
2018-12-27T07:08:57.954Z,72.67
2018-12-27T07:11:56.463Z,73.70
2018-12-27T07:14:56.557Z,73.33
2018-12-27T07:17:56.962Z,71.12
2018-12-27T07:20:56.274Z,72.17
2018-12-27T07:23:55.636Z,75.40
2018-12-27T07:26:53.204Z,73.87
2018-12-27T07:29:49.163Z,71.22
2018-12-27T07:32:45.367Z,73.37
2018-12-27T07:35:42.153Z,71.80
2018-12-27T07:38:38.264Z,69.77
2018-12-27T07:41:33.825Z,70.65
2018-12-27T07:44:29.313Z,72.25
2018-12-27T07:47:26.268Z,71.67
2018-12-27T07:50:21.886Z,69.82
2018-12-27T07:53:17.906Z,69.77
2018-12-27T07:56:17.565Z,70.90
2018-12-27T07:59:17.263Z,67.37
2018-12-27T08:02:15.643Z,68.40
2018-12-27T08:05:11.272Z,67.70
2018-12-27T08:08:07.871Z,65.40
2018-12-27T08:11:07.541Z,67.35
2018-12-27T08:14:04.070Z,68.05
2018-12-27T08:17:00.281Z,67.60
2018-12-27T08:20:00.688Z,66.45
2018-12-27T08:22:56.443Z,67.62
2018-12-27T08:25:53.189Z,64.97
2018-12-27T08:28:57.588Z,66.97
2018-12-27T08:32:00.201Z,66.02
2018-12-27T08:34:57.732Z,62.55
2018-12-27T08:38:04.082Z,65.32
2018-12-27T08:41:07.019Z,63.92
2018-12-27T08:44:09.068Z,63.08
2018-12-27T08:47:14.785Z,64.32
2018-12-27T08:50:15.040Z,63.65
2018-12-27T08:53:18.697Z,63.87
2018-12-27T08:56:31.971Z,63.60
2018-12-27T08:59:34.416Z,63.70
2018-12-27T09:02:37.961Z,62.60
2018-12-27T09:05:40.275Z,64.53
2018-12-27T09:08:37.656Z,61.50
2018-12-27T09:11:33.254Z,63.17
2018-12-27T09:14:31.819Z,63.17
2018-12-27T09:17:28.148Z,62.48
2018-12-27T09:20:23.709Z,62.75
2018-12-27T09:23:20.800Z,59.90
2018-12-27T09:26:16.651Z,61.25
2018-12-27T09:29:12.248Z,60.52
2018-12-27T09:32:08.031Z,59.03
2018-12-27T09:35:04.042Z,61.58
2018-12-27T09:38:00.387Z,61.10
2018-12-27T09:40:56.453Z,60.85
2018-12-27T09:43:52.555Z,60.98
2018-12-27T09:46:48.202Z,59.50
2018-12-27T09:49:43.755Z,60.15
2018-12-27T09:52:39.105Z,62.43
2018-12-27T09:55:34.466Z,60.75
2018-12-27T09:58:31.563Z,60.03
2018-12-27T10:01:27.042Z,60.25
2018-12-27T10:04:22.166Z,60.88
2018-12-27T10:07:17.730Z,61.23
2018-12-27T10:10:13.202Z,59.73
2018-12-27T10:13:08.997Z,60.08
2018-12-27T10:16:05.585Z,62.13
2018-12-27T10:19:04.928Z,59.10
2018-12-27T10:21:57.865Z,59.95
2018-12-27T10:24:53.308Z,62.10
2018-12-27T10:27:49.899Z,62.38
2018-12-27T10:30:59.618Z,58.73
2018-12-27T10:34:00.510Z,60.85
2018-12-27T10:37:07.087Z,59.35
2018-12-27T10:40:12.981Z,58.80
2018-12-27T10:43:19.931Z,59.67
2018-12-27T10:46:21.607Z,59.50
2018-12-27T10:49:29.761Z,60.58
2018-12-27T10:52:32.624Z,58.38
2018-12-27T10:55:39.969Z,58.55
2018-12-27T10:58:50.456Z,60.40
2018-12-27T11:01:52.526Z,58.70
2018-12-27T11:04:57.507Z,57.78
2018-12-27T11:07:59.049Z,56.28
2018-12-27T11:10:56.353Z,58.38
2018-12-27T11:14:04.926Z,57.98
2018-12-27T11:17:09.949Z,55.70
2018-12-27T11:20:09.952Z,58.25
2018-12-27T11:23:15.781Z,56.85
2018-12-27T11:26:16.611Z,55.20
2018-12-27T11:29:23.231Z,57.95
2018-12-27T11:32:21.411Z,56.63
2018-12-27T11:35:29.561Z,56.63
2018-12-27T11:38:31.423Z,56.35
2018-12-27T11:41:40.545Z,56.53
2018-12-27T11:44:42.679Z,55.60
2018-12-27T11:47:45.338Z,54.93
2018-12-27T11:50:55.098Z,56.25
2018-12-27T11:54:05.127Z,53.95
2018-12-27T11:57:03.295Z,54.60
2018-12-27T12:00:06.426Z,55.98
2018-12-27T12:03:15.047Z,54.03
2018-12-27T12:06:21.585Z,53.63
2018-12-27T12:09:46.215Z,54.58
2018-12-27T12:12:57.667Z,54.08
2018-12-27T12:16:09.784Z,54.33
2018-12-27T12:19:19.514Z,53.83
2018-12-27T12:22:24.848Z,53.63
2018-12-27T12:25:28.574Z,53.35
2018-12-27T12:28:36.112Z,53.13
2018-12-27T12:31:44.298Z,54.40
2018-12-27T12:34:45.650Z,56.70
2018-12-27T12:37:48.446Z,55.30
2018-12-27T12:40:50.531Z,55.73
2018-12-27T12:43:56.476Z,56.48
2018-12-27T12:47:02.947Z,56.33
2018-12-27T12:50:04.666Z,56.63
2018-12-27T12:53:08.624Z,57.05
2018-12-27T12:56:07.641Z,55.92
2018-12-27T12:59:05.008Z,56.68
2018-12-27T13:02:02.590Z,56.15
2018-12-27T13:05:10.402Z,54.98
2018-12-27T13:08:16.925Z,55.78
2018-12-27T13:11:14.342Z,55.30
2018-12-27T13:14:11.266Z,56.37
2018-12-27T13:17:12.684Z,57.50
2018-12-27T13:20:17.198Z,56.55
2018-12-27T13:23:16.547Z,58.60
2018-12-27T13:26:21.287Z,57.90
2018-12-27T13:29:42.509Z,59.50
2018-12-27T13:32:42.630Z,60.45
2018-12-27T13:35:49.536Z,58.60
2018-12-27T13:38:45.702Z,60.17
2018-12-27T13:41:44.551Z,60.60
2018-12-27T13:44:40.777Z,58.95
2018-12-27T13:47:36.542Z,60.28
2018-12-27T13:50:32.473Z,59.85
2018-12-27T13:53:28.339Z,60.00
2018-12-27T13:56:24.130Z,63.00
2018-12-27T13:59:19.429Z,63.52
2018-12-27T14:02:15.360Z,61.77
2018-12-27T14:05:11.338Z,61.60
2018-12-27T14:08:08.129Z,63.85
2018-12-27T14:11:03.967Z,64.62
2018-12-27T14:14:02.603Z,65.45
2018-12-27T14:16:58.736Z,63.98
2018-12-27T14:19:54.654Z,65.22
2018-12-27T14:22:50.945Z,64.92
2018-12-27T14:25:46.639Z,66.65
2018-12-27T14:28:42.195Z,64.65
2018-12-27T14:31:37.813Z,64.67
2018-12-27T14:34:33.393Z,65.75
2018-12-27T14:37:29.174Z,66.40
2018-12-27T14:40:27.139Z,68.80
2018-12-27T14:43:23.025Z,66.07
2018-12-27T14:46:19.087Z,69.90
2018-12-27T14:49:14.857Z,66.90
2018-12-27T14:52:10.555Z,68.42
2018-12-27T14:55:06.645Z,67.50
2018-12-27T14:58:02.090Z,70.83
2018-12-27T15:01:05.877Z,68.42
2018-12-27T15:03:55.027Z,67.45
2018-12-27T15:06:50.886Z,68.97
2018-12-27T15:09:46.647Z,70.00
2018-12-27T15:12:42.327Z,69.77
2018-12-27T15:15:38.062Z,66.90
2018-12-27T15:18:34.147Z,68.97
2018-12-27T15:21:29.609Z,68.30
2018-12-27T15:24:25.463Z,68.67
2018-12-27T15:27:21.744Z,69.47
2018-12-27T15:30:17.385Z,68.78
2018-12-27T15:33:13.887Z,68.25
2018-12-27T15:36:09.371Z,66.82
2018-12-27T15:39:05.513Z,68.70
2018-12-27T15:42:01.611Z,70.22
2018-12-27T15:44:57.885Z,66.95
2018-12-27T15:47:56.413Z,71.65
2018-12-27T15:50:50.860Z,70.75
2018-12-27T15:53:47.251Z,69.80
2018-12-27T15:56:43.276Z,72.70
2018-12-27T15:59:42.716Z,71.50
2018-12-27T16:02:38.418Z,71.12
2018-12-27T16:05:34.023Z,71.65
2018-12-27T16:08:31.173Z,69.77
2018-12-27T16:11:26.915Z,76.50
2018-12-27T16:14:23.086Z,71.62
2018-12-27T16:17:18.949Z,71.28
2018-12-27T16:20:15.100Z,75.97
2018-12-27T16:23:10.784Z,72.87
2018-12-27T16:26:07.244Z,73.37
2018-12-27T16:29:02.665Z,73.07
2018-12-27T16:31:58.080Z,73.10
2018-12-27T16:34:55.132Z,76.02
2018-12-27T16:37:50.727Z,73.47
2018-12-27T16:40:46.108Z,71.75
2018-12-27T16:43:44.727Z,72.20
2018-12-27T16:46:40.284Z,73.12
2018-12-27T16:49:35.734Z,74.30
2018-12-27T16:52:31.377Z,71.82
2018-12-27T16:55:27.194Z,72.40
2018-12-27T16:58:22.675Z,72.35
2018-12-27T17:01:17.934Z,72.25
2018-12-27T17:04:13.389Z,71.05
2018-12-27T17:07:15.884Z,73.00
2018-12-27T17:10:06.711Z,72.32
2018-12-27T17:13:02.421Z,73.72
2018-12-27T17:15:58.369Z,78.02
2018-12-27T17:18:57.937Z,79.55
2018-12-27T17:21:53.559Z,78.22
2018-12-27T17:24:49.573Z,73.37
2018-12-27T17:27:45.241Z,77.45
2018-12-27T17:30:41.269Z,77.17
2018-12-27T17:33:36.606Z,74.12
2018-12-27T17:36:31.838Z,77.17
2018-12-27T17:39:27.560Z,76.57
2018-12-27T17:42:26.091Z,75.70
2018-12-27T17:45:24.677Z,74.07
2018-12-27T17:48:20.629Z,75.67
2018-12-27T17:51:16.179Z,74.77
2018-12-27T17:54:13.085Z,75.72
2018-12-27T17:57:09.072Z,74.67
2018-12-27T18:00:04.934Z,76.17
2018-12-27T18:03:00.394Z,74.50
2018-12-27T18:05:55.927Z,74.42
2018-12-27T18:08:51.408Z,75.12
2018-12-27T18:11:46.787Z,74.37
2018-12-27T18:14:42.289Z,77.12
2018-12-27T18:17:38.065Z,77.50
2018-12-27T18:20:33.676Z,78.47
2018-12-27T18:23:29.414Z,79.53
2018-12-27T18:26:24.773Z,81.92
2018-12-27T18:29:20.360Z,79.97
2018-12-27T18:32:15.962Z,79.22
2018-12-27T18:35:11.514Z,77.30
2018-12-27T18:38:07.038Z,82.40
2018-12-27T18:41:02.740Z,81.42
2018-12-27T18:43:58.350Z,80.20
2018-12-27T18:46:53.836Z,83.27
2018-12-27T18:49:50.455Z,78.65
2018-12-27T18:52:46.161Z,79.95
2018-12-27T18:55:41.973Z,80.97
2018-12-27T18:58:37.398Z,78.50
2018-12-27T19:01:33.109Z,79.85
2018-12-27T19:04:28.637Z,79.82
2018-12-27T19:07:24.698Z,77.55
2018-12-27T19:10:20.604Z,78.17
2018-12-27T19:13:17.405Z,80.28
2018-12-27T19:16:13.593Z,81.85
2018-12-27T19:19:09.224Z,81.57
2018-12-27T19:22:17.198Z,80.28
2018-12-27T19:25:13.435Z,78.05
2018-12-27T19:28:09.043Z,80.17
2018-12-27T19:31:05.193Z,78.95
2018-12-27T19:34:02.082Z,77.15
2018-12-27T19:36:57.928Z,79.30
2018-12-27T19:39:53.710Z,79.22
2018-12-27T19:42:49.304Z,81.05
2018-12-27T19:45:45.117Z,80.87
2018-12-27T19:48:41.146Z,79.95
2018-12-27T19:51:36.973Z,79.27
2018-12-27T19:54:32.715Z,80.80
2018-12-27T19:57:28.362Z,79.37
2018-12-27T20:00:24.230Z,78.37
2018-12-27T20:03:20.401Z,82.20
2018-12-27T20:06:16.353Z,81.05
2018-12-27T20:09:14.195Z,75.42
2018-12-27T20:12:09.728Z,77.37
2018-12-27T20:15:05.401Z,77.27
2018-12-27T20:18:01.286Z,77.50
2018-12-27T20:20:56.879Z,76.70
2018-12-27T20:23:53.219Z,77.82
2018-12-27T20:26:48.979Z,76.97
2018-12-27T20:29:45.917Z,79.20
2018-12-27T20:32:41.686Z,76.07
2018-12-27T20:35:37.122Z,75.10
2018-12-27T20:38:35.481Z,74.53
2018-12-27T20:41:31.148Z,74.12
2018-12-27T20:44:26.802Z,71.15
2018-12-27T20:47:25.988Z,71.28
2018-12-27T20:50:21.879Z,72.12
2018-12-27T20:53:17.511Z,72.75
2018-12-27T20:56:13.150Z,72.22
2018-12-27T20:59:09.099Z,72.15
2018-12-27T21:02:04.631Z,71.92
2018-12-27T21:05:00.445Z,71.50
2018-12-27T21:07:55.851Z,71.00
2018-12-27T21:10:51.480Z,69.40
2018-12-27T21:13:47.374Z,70.62
2018-12-27T21:16:42.990Z,68.60
2018-12-27T21:19:39.553Z,69.90
2018-12-27T21:22:35.110Z,68.22
2018-12-27T21:25:31.108Z,66.60
2018-12-27T21:28:27.341Z,66.72
2018-12-27T21:31:22.752Z,64.62
2018-12-27T21:34:18.727Z,65.05
2018-12-27T21:37:14.057Z,64.45
2018-12-27T21:40:10.007Z,66.33
2018-12-27T21:43:05.477Z,64.47
2018-12-27T21:46:04.901Z,63.17
2018-12-27T21:49:00.535Z,63.60
2018-12-27T21:51:56.593Z,63.92
2018-12-27T21:54:55.918Z,64.62
2018-12-27T21:57:49.476Z,64.80
2018-12-27T22:00:46.695Z,62.70
2018-12-27T22:03:42.537Z,63.40
2018-12-27T22:06:38.086Z,64.58
2018-12-27T22:09:33.636Z,64.95
2018-12-27T22:12:29.156Z,63.42
2018-12-27T22:15:30.066Z,62.03
2018-12-27T22:18:22.948Z,63.85
2018-12-27T22:21:18.298Z,65.08
2018-12-27T22:24:15.031Z,62.65
2018-12-27T22:27:11.122Z,62.70
2018-12-27T22:30:07.210Z,62.80
2018-12-27T22:33:03.076Z,63.13
2018-12-27T22:35:58.982Z,63.45
2018-12-27T22:38:57.010Z,63.75
2018-12-27T22:41:52.509Z,65.15
2018-12-27T22:44:48.358Z,65.30
2018-12-27T22:47:46.641Z,64.70
2018-12-27T22:50:40.787Z,63.23
2018-12-27T22:53:39.702Z,63.65
2018-12-27T22:56:35.686Z,63.95
2018-12-27T22:59:31.033Z,63.38
2018-12-27T23:02:26.723Z,64.27
2018-12-27T23:05:24.424Z,63.42
2018-12-27T23:08:19.906Z,64.72
2018-12-27T23:11:15.322Z,63.58
2018-12-27T23:14:11.059Z,61.77
2018-12-27T23:17:06.655Z,61.58
2018-12-27T23:20:02.164Z,64.35
2018-12-27T23:22:58.753Z,64.00
2018-12-27T23:25:54.502Z,65.12
2018-12-27T23:28:50.359Z,65.50
2018-12-27T23:31:49.982Z,64.92
2018-12-27T23:34:45.352Z,63.48
2018-12-27T23:37:43.217Z,63.85
2018-12-27T23:40:39.391Z,62.75
2018-12-27T23:43:35.493Z,65.22
2018-12-27T23:46:30.768Z,64.97
2018-12-27T23:49:26.769Z,63.50
2018-12-27T23:52:24.191Z,64.15
2018-12-27T23:55:20.011Z,64.92
2018-12-27T23:58:18.186Z,65.78
